Time;durP1;ratioP1;P1;durP2;ratioP2;P2;SDS_P1;SDS_P2;PMS_P1;PMS_P2;Temp;Humidity;BMP_temperature;BMP_pressure;BME280_temperature;BME280_humidity;BME280_pressure;Samples;Min_cycle;Max_cycle;Signal;HPM_P1;HPM_P2
2021/03/09 00:00:11;;;;;;;27.25;18.20;;;3.00;99.90;;;2.39;74.09;100755.88;4987240;28;20037;-38
2021/03/09 00:02:38;;;;;;;29.90;17.83;;;3.00;99.90;;;2.46;73.99;100757.19;4988541;28;20149;-41
2021/03/09 00:05:04;;;;;;;25.55;16.38;;;3.00;99.90;;;2.71;72.98;100760.97;5000067;28;20516;-39
2021/03/09 00:07:31;;;;;;;25.70;16.00;;;3.20;99.90;;;2.53;73.38;100755.94;4996569;28;20093;-39
2021/03/09 00:09:57;;;;;;;26.40;15.30;;;3.20;99.90;;;2.74;72.62;100760.78;4992328;28;20062;-38
2021/03/09 00:12:23;;;;;;;22.40;13.10;;;3.30;99.90;;;3.07;70.88;100760.56;4999754;28;20042;-39
2021/03/09 00:14:49;;;;;;;27.92;16.75;;;3.60;99.90;;;3.13;70.35;100760.22;4999950;28;20126;-38
2021/03/09 00:17:15;;;;;;;26.05;15.88;;;3.70;99.90;;;2.82;71.90;100761.19;4973914;28;20045;-39
2021/03/09 00:19:41;;;;;;;21.63;14.20;;;3.50;99.90;;;2.76;72.21;100767.50;4992158;28;20122;-39
2021/03/09 00:22:07;;;;;;;22.00;15.23;;;3.40;99.90;;;2.94;71.33;100763.03;4991029;28;20042;-37
2021/03/09 00:24:33;;;;;;;25.40;13.48;;;3.40;99.90;;;3.24;70.08;100757.84;4991184;28;20070;-39
2021/03/09 00:26:59;;;;;;;18.30;12.15;;;3.60;99.90;;;3.06;70.86;100761.50;4991186;28;20065;-39
2021/03/09 00:29:25;;;;;;;21.63;13.52;;;3.60;99.90;;;3.54;68.42;100762.91;4989759;28;20068;-38
2021/03/09 00:31:50;;;;;;;21.05;13.73;;;3.90;99.90;;;3.54;68.23;100758.59;4992792;28;20047;-40
2021/03/09 00:34:16;;;;;;;20.13;14.90;;;4.10;99.90;;;3.52;68.26;100757.03;4990909;28;20032;-38
2021/03/09 00:36:42;;;;;;;24.70;14.68;;;4.10;99.90;;;3.47;68.54;100754.72;4992288;28;20057;-38
2021/03/09 00:39:08;;;;;;;21.88;13.25;;;4.10;99.90;;;3.29;69.47;100759.25;4989654;28;20379;-39
2021/03/09 00:41:34;;;;;;;22.88;13.38;;;3.90;99.90;;;3.17;69.91;100759.13;4990592;28;20026;-38
2021/03/09 00:44:00;;;;;;;23.73;13.75;;;3.80;99.90;;;3.13;69.89;100757.66;4990774;28;20058;-39
2021/03/09 00:46:26;;;;;;;21.08;13.07;;;3.70;99.90;;;3.18;69.53;100758.22;4991298;28;20512;-37
2021/03/09 00:48:52;;;;;;;20.08;12.57;;;3.80;99.90;;;3.28;69.14;100755.00;4989299;28;20073;-39
2021/03/09 00:51:17;;;;;;;19.27;11.55;;;3.80;99.90;;;3.41;68.37;100752.50;4996076;28;20069;-37
2021/03/09 00:53:43;;;;;;;18.80;11.88;;;3.90;99.90;;;3.12;69.49;100745.69;4991828;28;20057;-40
2021/03/09 00:56:09;;;;;;;18.15;12.55;;;3.80;99.90;;;3.23;68.90;100740.75;4996436;28;20034;-39
2021/03/09 00:58:35;;;;;;;16.77;11.13;;;3.80;99.90;;;3.15;69.40;100742.94;4989289;28;20045;-38
2021/03/09 01:01:01;;;;;;;16.60;11.15;;;3.80;99.90;;;3.14;69.25;100741.28;4990104;28;20434;-39
2021/03/09 01:03:27;;;;;;;18.45;11.38;;;3.70;99.90;;;3.15;69.18;100750.66;4990529;28;20026;-40
2021/03/09 01:05:53;;;;;;;17.88;12.20;;;3.70;99.90;;;3.27;68.58;100752.53;4991205;28;20030;-39
2021/03/09 01:08:19;;;;;;;17.85;11.68;;;3.70;99.90;;;3.34;68.25;100744.31;4994301;28;20121;-38
2021/03/09 01:10:45;;;;;;;17.52;11.43;;;3.80;99.90;;;3.58;67.01;100739.44;5010836;28;20038;-39
2021/03/09 01:13:11;;;;;;;18.55;11.05;;;4.00;99.90;;;3.73;66.46;100747.16;5003074;28;20031;-40
2021/03/09 01:15:38;;;;;;;21.38;11.10;;;4.20;99.90;;;4.14;64.53;100748.00;4990117;28;20026;-38
2021/03/09 01:18:05;;;;;;;16.88;9.90;;;4.50;99.90;;;4.47;62.97;100739.84;4990000;28;20122;-40
2021/03/09 01:20:31;;;;;;;13.40;9.80;;;4.80;99.90;;;4.57;62.68;100745.25;4990121;28;20034;-39
2021/03/09 01:22:58;;;;;;;16.23;10.43;;;5.10;99.90;;;4.98;60.32;100743.34;4989952;28;20182;-38
2021/03/09 01:25:24;;;;;;;15.15;10.32;;;5.30;98.60;;;5.20;59.86;100741.94;4990985;28;20336;-39
2021/03/09 01:27:50;;;;;;;19.00;11.27;;;5.50;97.90;;;5.08;60.34;100737.59;4989898;28;20061;-40
2021/03/09 01:30:18;;;;;;;16.50;10.10;;;5.50;97.30;;;5.15;59.79;100733.66;4989770;28;20490;-39
2021/03/09 01:32:44;;;;;;;15.65;10.35;;;5.60;96.30;;;5.17;59.57;100734.38;4990608;28;20109;-38
2021/03/09 01:35:11;;;;;;;19.10;10.80;;;5.70;95.50;;;4.93;60.42;100729.91;4989732;28;20042;-38
2021/03/09 01:37:36;;;;;;;14.88;10.15;;;5.60;96.10;;;4.90;59.99;100724.97;4990742;28;20117;-39
2021/03/09 01:40:09;;;;;;;15.13;11.00;;;5.50;95.60;;;4.85;60.04;100728.78;4989934;28;20188;-39
2021/03/09 01:42:36;;;;;;;14.80;10.25;;;5.50;96.00;;;4.81;60.71;100732.47;4988888;28;20042;-39
2021/03/09 01:45:05;;;;;;;17.42;10.15;;;5.40;95.90;;;4.86;60.15;100720.91;5000337;28;20049;-38
2021/03/09 01:47:36;;;;;;;15.20;10.82;;;5.40;95.30;;;4.76;60.49;100724.22;4990330;28;20060;-39
2021/03/09 01:50:03;;;;;;;17.05;10.48;;;5.30;95.90;;;4.62;60.96;100717.38;4989358;28;20064;-39
2021/03/09 01:52:31;;;;;;;15.63;10.82;;;5.30;96.00;;;4.60;60.91;100716.66;4990428;28;20042;-38
2021/03/09 01:54:57;;;;;;;14.23;9.15;;;5.20;96.10;;;4.83;59.86;100709.97;4968624;28;20070;-40
2021/03/09 01:57:22;;;;;;;14.55;9.38;;;5.30;94.60;;;4.77;59.28;100708.63;4954854;28;20631;-38
2021/03/09 01:59:52;;;;;;;16.67;9.35;;;5.30;94.50;;;4.75;59.62;100701.91;4992718;28;20482;-39
2021/03/09 02:02:18;;;;;;;13.40;8.88;;;5.40;94.40;;;4.76;59.48;100698.41;4991679;28;20046;-39
2021/03/09 02:04:44;;;;;;;19.27;8.82;;;5.30;93.90;;;4.85;58.29;100703.78;4972765;28;20037;-39
2021/03/09 02:07:10;;;;;;;12.80;8.98;;;5.40;92.90;;;4.94;58.46;100702.34;4989236;28;20038;-39
2021/03/09 02:09:36;;;;;;;12.73;9.00;;;5.50;92.60;;;4.74;59.23;100695.91;4989014;28;20030;-39
2021/03/09 02:12:34;;;;;;;15.27;9.93;;;5.40;93.00;;;4.66;58.62;100693.88;4989868;28;20426;-39
2021/03/09 02:15:21;;;;;;;15.65;8.88;;;5.30;93.50;;;4.71;58.92;100698.72;4951863;28;20176;-40
2021/03/09 02:18:08;;;;;;;12.77;7.88;;;5.20;93.50;;;4.70;58.18;100689.34;5006148;28;20454;-40
2021/03/09 02:21:23;;;;;;;14.23;8.25;;;5.20;92.60;;;4.77;57.71;100684.56;4990230;28;20042;-41
2021/03/09 02:24:20;;;;;;;12.15;8.85;;;5.30;92.40;;;4.62;59.13;100686.44;5001309;28;20100;-40
2021/03/09 02:27:10;;;;;;;12.88;8.45;;;5.30;92.60;;;4.37;59.96;100684.59;4990098;28;20050;-40
2021/03/09 02:29:42;;;;;;;15.05;8.73;;;5.10;93.30;;;4.44;59.87;100682.47;4988866;28;20049;-39
2021/03/09 02:32:20;;;;;;;13.35;7.97;;;5.10;93.30;;;4.54;58.61;100676.59;4988423;28;20426;-39
2021/03/09 02:34:53;;;;;;;12.93;8.10;;;5.00;93.00;;;4.53;58.28;100682.69;4988861;28;20046;-40
2021/03/09 02:37:21;;;;;;;11.30;7.30;;;5.10;92.90;;;4.69;57.98;100685.09;5009577;28;20038;-39
2021/03/09 02:39:48;;;;;;;10.90;8.10;;;5.20;92.10;;;4.80;57.30;100685.19;4984447;28;20125;-40
2021/03/09 02:42:25;;;;;;;11.90;8.15;;;5.30;91.20;;;4.79;56.88;100678.38;4952678;28;20513;-40
2021/03/09 02:44:56;;;;;;;10.23;6.53;;;5.30;90.90;;;4.94;56.32;100677.34;4999834;28;20053;-40
2021/03/09 02:47:23;;;;;;;12.80;8.02;;;5.40;89.50;;;5.03;56.25;100682.81;4983251;28;20031;-39
2021/03/09 02:49:53;;;;;;;9.63;6.85;;;5.60;88.70;;;4.96;56.45;100675.50;4968577;28;20512;-39
2021/03/09 02:52:24;;;;;;;11.50;7.00;;;5.50;88.80;;;5.16;55.25;100670.75;4988025;28;20141;-40
2021/03/09 02:54:52;;;;;;;11.02;7.40;;;5.60;86.70;;;5.26;54.90;100674.31;4988257;28;20077;-40
2021/03/09 02:57:21;;;;;;;11.32;6.78;;;5.70;85.90;;;5.14;55.34;100673.44;4988256;28;20515;-39
2021/03/09 02:59:47;;;;;;;10.00;6.63;;;5.70;86.60;;;5.23;54.77;100674.53;4967802;28;20041;-40
2021/03/09 03:02:16;;;;;;;9.65;6.03;;;5.70;84.80;;;5.23;54.79;100666.78;4964808;28;20042;-41
2021/03/09 03:04:46;;;;;;;9.00;6.63;;;5.80;84.90;;;4.97;56.00;100668.56;4987844;28;20561;-40
2021/03/09 03:07:13;;;;;;;9.82;5.43;;;5.60;85.40;;;5.11;54.79;100665.88;4997110;28;20037;-40
2021/03/09 03:09:41;;;;;;;8.82;5.90;;;5.60;84.00;;;5.13;54.11;100652.88;4972936;28;20046;-39
2021/03/09 03:12:11;;;;;;;9.95;5.68;;;5.60;83.40;;;5.16;54.18;100653.47;4962951;28;20459;-40
2021/03/09 03:14:39;;;;;;;11.38;5.88;;;5.70;82.70;;;5.07;54.68;100651.53;5124069;23;20050;-39
2021/03/09 03:17:08;;;;;;;9.48;5.75;;;5.60;83.10;;;5.06;54.07;100649.06;4956813;28;20049;-39
2021/03/09 03:19:36;;;;;;;8.98;5.97;;;5.60;83.50;;;5.04;54.49;100650.91;4988145;28;20054;-39
2021/03/09 03:22:03;;;;;;;9.82;6.47;;;5.60;83.20;;;4.77;55.67;100649.25;4969864;28;20132;-39
2021/03/09 03:24:30;;;;;;;10.48;6.88;;;5.40;84.70;;;4.51;57.17;100660.50;4980172;28;20031;-39
2021/03/09 03:26:57;;;;;;;10.73;6.80;;;5.20;86.60;;;4.17;58.53;100665.28;4967503;28;20042;-39
2021/03/09 03:29:24;;;;;;;9.00;5.85;;;4.90;89.10;;;4.21;57.94;100663.34;4965439;28;20497;-39
2021/03/09 03:31:50;;;;;;;10.93;6.28;;;4.80;88.70;;;4.24;57.45;100663.97;4983184;28;20042;-39
2021/03/09 03:34:17;;;;;;;9.45;6.22;;;4.80;88.60;;;4.32;57.08;100664.25;4987487;28;20031;-39
2021/03/09 03:36:43;;;;;;;7.97;5.57;;;4.90;87.90;;;4.37;56.59;100665.72;4984272;28;20097;-39
2021/03/09 03:39:09;;;;;;;12.18;5.28;;;5.00;87.90;;;4.33;56.71;100660.75;4988667;28;20035;-39
2021/03/09 03:41:35;;;;;;;12.10;6.95;;;4.90;87.80;;;4.54;55.85;100663.69;4982714;28;20045;-39
2021/03/09 03:44:02;;;;;;;6.90;4.40;;;5.00;86.60;;;4.73;53.94;100652.97;4986376;28;20038;-38
2021/03/09 03:46:28;;;;;;;7.65;5.43;;;5.10;84.50;;;5.06;53.23;100654.22;4989022;28;20054;-39
2021/03/09 03:48:54;;;;;;;9.20;4.97;;;5.40;82.20;;;4.98;54.03;100652.97;4990241;28;20058;-39
2021/03/09 03:51:49;;;;;;;7.65;4.85;;;5.50;81.90;;;4.87;53.27;100650.28;4973500;28;20497;-40
2021/03/09 03:54:54;;;;;;;9.93;5.78;;;5.40;81.70;;;4.81;53.33;100648.13;4972996;28;20063;-38
2021/03/09 03:57:45;;;;;;;8.52;5.47;;;5.40;82.30;;;4.76;54.45;100650.19;4975999;28;20038;-39
2021/03/09 04:00:14;;;;;;;9.35;5.10;;;5.30;82.30;;;4.59;55.64;100656.47;4987647;28;20100;-39
2021/03/09 04:02:42;;;;;;;11.88;5.82;;;5.20;82.90;;;4.79;54.43;100646.56;4966993;28;20042;-39
2021/03/09 04:05:09;;;;;;;12.88;6.40;;;5.30;82.10;;;4.76;54.51;100646.78;4975187;28;20120;-39
2021/03/09 04:07:36;;;;;;;9.10;5.63;;;5.30;82.10;;;4.70;54.58;100649.78;4968992;28;20069;-39
2021/03/09 04:10:04;;;;;;;8.27;5.65;;;5.20;82.10;;;4.80;53.56;100654.22;4992399;28;20050;-39
2021/03/09 04:12:30;;;;;;;13.13;8.40;;;5.30;81.70;;;4.77;54.29;100654.41;4972254;28;20401;-40
2021/03/09 04:14:59;;;;;;;10.65;6.95;;;5.30;81.60;;;4.50;55.45;100645.94;4986588;28;20153;-39
2021/03/09 04:17:27;;;;;;;9.02;5.80;;;5.20;83.10;;;4.33;56.00;100653.03;4965679;28;20038;-39
2021/03/09 04:19:55;;;;;;;11.95;6.85;;;5.00;83.70;;;4.54;54.53;100648.22;4992304;28;20030;-39
2021/03/09 04:22:24;;;;;;;10.18;6.70;;;5.00;82.80;;;4.56;55.12;100648.13;4990392;28;20034;-39
2021/03/09 04:24:51;;;;;;;10.23;6.05;;;5.10;82.80;;;4.48;55.40;100645.22;4974731;28;20088;-39
2021/03/09 04:27:22;;;;;;;10.70;6.47;;;5.10;83.30;;;4.28;56.45;100647.34;4966531;28;20045;-38
2021/03/09 04:29:59;;;;;;;9.45;5.72;;;4.90;84.30;;;4.38;55.41;100646.75;4965909;28;20034;-39
2021/03/09 04:32:26;;;;;;;8.93;5.43;;;4.90;84.10;;;4.45;55.24;100648.81;4983844;28;20482;-40
2021/03/09 04:34:54;;;;;;;8.70;5.43;;;5.00;83.90;;;4.56;54.64;100646.38;4991825;28;20414;-39
2021/03/09 04:37:21;;;;;;;7.65;5.85;;;5.10;82.70;;;4.59;54.75;100650.50;4970251;28;20038;-40
2021/03/09 04:39:48;;;;;;;11.23;6.28;;;5.20;82.20;;;4.47;55.11;100649.53;4974462;28;20034;-40
2021/03/09 04:42:14;;;;;;;7.53;5.47;;;5.00;82.20;;;4.48;54.69;100653.78;4968036;28;20058;-39
2021/03/09 04:44:41;;;;;;;8.25;5.50;;;5.00;82.00;;;4.50;54.75;100646.75;4985596;28;20042;-40
2021/03/09 04:47:08;;;;;;;7.57;5.07;;;5.00;81.90;;;4.55;54.66;100649.88;4981621;28;20038;-40
2021/03/09 04:49:36;;;;;;;7.50;5.07;;;5.10;81.50;;;4.62;54.16;100642.56;4988041;28;20085;-40
2021/03/09 04:52:04;;;;;;;8.32;4.95;;;5.10;80.50;;;4.70;53.32;100642.88;4982443;28;20046;-40
2021/03/09 04:54:34;;;;;;;8.55;5.63;;;5.20;80.10;;;4.76;53.21;100637.28;4971538;28;20038;-39
2021/03/09 04:57:00;;;;;;;9.05;5.35;;;5.30;79.30;;;4.76;53.36;100634.69;4968571;28;20379;-39
2021/03/09 04:59:26;;;;;;;8.75;5.75;;;5.30;79.30;;;4.78;52.95;100643.16;4976506;28;20105;-39
2021/03/09 05:01:52;;;;;;;8.13;5.70;;;5.30;78.30;;;4.92;52.72;100637.06;4989730;28;20029;-40
2021/03/09 05:04:18;;;;;;;7.15;5.65;;;5.40;78.10;;;4.89;52.81;100635.53;4983404;28;20045;-39
2021/03/09 05:06:45;;;;;;;9.60;6.13;;;5.40;77.80;;;4.80;53.08;100645.63;4987855;28;20542;-40
2021/03/09 05:09:12;;;;;;;13.75;6.15;;;5.40;77.90;;;4.62;53.58;100639.97;4989724;28;20044;-40
2021/03/09 05:11:37;;;;;;;11.93;7.03;;;5.30;78.60;;;4.64;53.31;100636.38;4989295;28;20030;-38
2021/03/09 05:14:03;;;;;;;7.38;5.30;;;5.20;78.10;;;4.69;53.03;100640.41;4985699;28;20092;-40
2021/03/09 05:16:29;;;;;;;12.77;6.07;;;5.20;78.40;;;4.72;52.96;100645.34;4990808;28;20556;-41
2021/03/09 05:18:55;;;;;;;10.35;6.20;;;5.30;78.30;;;4.60;53.58;100639.25;4977705;28;20085;-40
2021/03/09 05:21:21;;;;;;;8.27;5.22;;;5.20;79.10;;;4.82;52.65;100647.19;4990767;28;20080;-40
2021/03/09 05:23:47;;;;;;;9.52;6.43;;;5.30;77.90;;;4.65;53.50;100650.09;4988537;28;20038;-39
2021/03/09 05:26:13;;;;;;;7.88;5.35;;;5.20;78.20;;;4.63;53.00;100645.03;4990771;28;20470;-40
2021/03/09 05:28:39;;;;;;;7.65;5.55;;;5.20;78.30;;;4.70;52.92;100653.19;4982255;28;20105;-39
2021/03/09 05:31:05;;;;;;;9.32;5.88;;;5.20;77.90;;;4.77;52.92;100656.16;4987362;28;20041;-43
2021/03/09 05:33:31;;;;;;;9.73;6.53;;;5.30;77.70;;;4.63;53.57;100657.09;4990515;28;20453;-41
2021/03/09 05:35:57;;;;;;;7.15;5.38;;;5.20;78.70;;;4.46;54.47;100655.63;4990328;28;20045;-41
2021/03/09 05:38:23;;;;;;;8.45;6.05;;;5.10;79.40;;;4.38;54.59;100649.31;4990515;28;20061;-41
2021/03/09 05:40:49;;;;;;;10.52;5.85;;;5.00;80.40;;;4.32;54.78;100659.09;4990672;28;20418;-40
2021/03/09 05:43:15;;;;;;;12.13;6.22;;;5.00;79.90;;;4.26;55.01;100659.50;4973252;28;20048;-41
2021/03/09 05:45:41;;;;;;;8.65;6.20;;;4.90;80.30;;;4.31;54.86;100664.38;4990530;28;20034;-42
2021/03/09 05:48:08;;;;;;;9.23;5.60;;;4.90;80.40;;;4.34;54.96;100665.00;4990509;28;20034;-41
2021/03/09 05:50:34;;;;;;;8.75;5.82;;;4.90;81.30;;;4.39;54.56;100653.56;4989961;28;20035;-40
2021/03/09 05:53:00;;;;;;;10.57;6.15;;;5.00;80.40;;;4.47;54.40;100648.72;4972797;28;20088;-39
2021/03/09 05:55:26;;;;;;;8.13;5.55;;;5.00;80.50;;;4.58;54.20;100648.84;4990168;28;20079;-40
2021/03/09 05:57:52;;;;;;;13.20;6.88;;;5.10;79.40;;;4.59;54.10;100648.75;4990159;28;20034;-41
2021/03/09 06:00:18;;;;;;;8.38;5.32;;;5.20;79.10;;;4.69;53.65;100648.13;4990418;28;20038;-40
2021/03/09 06:02:44;;;;;;;9.27;5.35;;;5.30;78.80;;;4.82;52.95;100656.69;4990214;28;20042;-40
2021/03/09 06:05:11;;;;;;;7.00;5.20;;;5.40;77.60;;;4.95;52.44;100642.84;4990028;28;20394;-40
2021/03/09 06:07:38;;;;;;;8.80;5.28;;;5.50;76.50;;;4.97;52.52;100648.75;4989659;28;20068;-42
2021/03/09 06:10:18;;;;;;;10.43;6.10;;;5.60;76.90;;;4.99;53.67;100649.47;4990181;28;20034;-39
2021/03/09 06:12:43;;;;;;;13.45;6.63;;;5.60;79.50;;;5.05;52.81;100652.56;4990014;28;20339;-40
2021/03/09 06:15:10;;;;;;;8.45;5.88;;;5.70;76.10;;;5.10;52.00;100650.50;4989546;28;20080;-41
2021/03/09 06:17:38;;;;;;;9.32;5.43;;;5.70;75.40;;;5.15;51.78;100645.84;4989477;28;20034;-40
2021/03/09 06:20:07;;;;;;;10.02;5.18;;;5.70;74.60;;;5.16;51.96;100647.50;4989822;28;20126;-39
2021/03/09 06:22:50;;;;;;;11.95;5.93;;;5.80;75.20;;;5.16;51.42;100640.56;4989831;28;20038;-40
2021/03/09 06:25:27;;;;;;;10.95;6.45;;;5.80;74.50;;;5.21;51.52;100641.06;4989842;28;20397;-39
2021/03/09 06:27:53;;;;;;;11.10;5.65;;;5.80;74.70;;;5.16;51.74;100643.16;4989464;28;20041;-40
2021/03/09 06:30:35;;;;;;;10.27;5.63;;;5.80;74.70;;;5.10;52.53;100650.50;4989377;28;20329;-43
2021/03/09 06:33:02;;;;;;;14.38;6.38;;;5.80;76.10;;;5.28;51.89;100646.63;4990023;28;20042;-39
2021/03/09 06:35:34;;;;;;;8.98;5.72;;;5.80;74.60;;;5.34;50.37;100649.59;4989560;28;20118;-41
2021/03/09 06:38:17;;;;;;;8.45;5.65;;;5.90;73.40;;;5.26;51.82;100651.06;4989248;28;20046;-39
2021/03/09 06:41:14;;;;;;;7.53;5.60;;;5.90;74.50;;;5.31;50.54;100649.00;4989262;28;20116;-40
2021/03/09 06:44:02;;;;;;;8.77;5.93;;;5.90;73.30;;;5.43;49.75;100650.72;4989599;28;20434;-39
2021/03/09 06:46:28;;;;;;;6.57;5.10;;;6.00;72.80;;;5.51;50.79;100645.84;4989344;28;20039;-39
2021/03/09 06:49:04;;;;;;;8.07;5.78;;;6.10;72.50;;;5.58;50.32;100646.25;4989055;28;20582;-39
2021/03/09 06:51:36;;;;;;;8.10;5.50;;;6.20;72.60;;;5.60;50.16;100650.38;4965961;28;20491;-40
2021/03/09 06:54:04;;;;;;;11.77;5.97;;;6.20;71.90;;;5.64;50.65;100656.16;4971011;28;20173;-39
2021/03/09 06:56:31;;;;;;;12.55;6.05;;;6.30;72.10;;;5.65;50.92;100658.66;4969750;28;20050;-40
2021/03/09 06:59:24;;;;;;;12.18;6.43;;;6.30;72.70;;;5.61;50.50;100659.78;4969824;28;20039;-40
2021/03/09 07:02:25;;;;;;;8.50;5.20;;;6.30;72.30;;;5.63;50.33;100655.34;4970099;28;20449;-39
2021/03/09 07:05:09;;;;;;;9.13;6.05;;;6.30;72.20;;;5.65;51.05;100663.81;4969940;28;20039;-40
2021/03/09 07:07:40;;;;;;;9.40;6.03;;;6.30;72.70;;;5.67;51.17;100666.28;4970046;28;20046;-40
2021/03/09 07:10:10;;;;;;;7.50;4.55;;;6.40;73.10;;;5.76;50.93;100667.38;4969699;28;20548;-39
2021/03/09 07:12:39;;;;;;;8.38;5.40;;;6.40;72.40;;;5.80;50.74;100666.22;4969955;28;20433;-41
2021/03/09 07:15:11;;;;;;;10.05;6.40;;;6.50;72.30;;;5.89;50.89;100670.78;4969561;28;20054;-40
2021/03/09 07:17:39;;;;;;;9.60;6.07;;;6.50;72.10;;;6.15;50.31;100674.06;4968724;28;20042;-41
2021/03/09 07:20:09;;;;;;;7.75;5.65;;;6.80;71.60;;;6.26;50.33;100671.53;4969658;28;20035;-39
2021/03/09 07:22:37;;;;;;;11.88;6.30;;;6.90;72.10;;;6.42;50.19;100672.06;4968009;28;20125;-41
2021/03/09 07:25:14;;;;;;;9.38;5.65;;;7.10;71.90;;;6.65;48.81;100665.16;4969632;28;20061;-40
2021/03/09 07:28:03;;;;;;;8.45;6.05;;;7.20;70.80;;;6.91;48.14;100668.41;4967087;28;20054;-41
2021/03/09 07:30:33;;;;;;;7.35;5.57;;;7.40;69.70;;;7.20;48.23;100661.81;4968671;28;20054;-39
2021/03/09 07:32:59;;;;;;;8.15;5.40;;;7.70;68.70;;;7.45;47.65;100670.28;4969627;28;20434;-38
2021/03/09 07:35:30;;;;;;;8.23;6.00;;;7.90;68.60;;;7.62;47.07;100662.81;4969432;28;20318;-41
2021/03/09 07:37:57;;;;;;;8.13;5.82;;;8.10;67.80;;;7.86;46.44;100661.84;4969472;28;20046;-38
2021/03/09 07:40:32;;;;;;;17.98;6.25;;;8.40;66.80;;;8.03;45.62;100657.91;4969138;28;20238;-41
2021/03/09 07:42:59;;;;;;;10.25;5.82;;;8.60;65.80;;;8.09;45.81;100659.97;4969154;28;20039;-40
2021/03/09 07:45:37;;;;;;;7.88;5.22;;;8.70;65.00;;;8.20;44.06;100665.13;4969389;28;20058;-42
2021/03/09 07:48:17;;;;;;;6.78;5.13;;;8.70;64.60;;;8.31;44.12;100659.91;4969032;28;20035;-40
2021/03/09 07:50:46;;;;;;;11.52;5.75;;;8.90;63.20;;;8.20;45.40;100663.38;4969351;28;20160;-39
2021/03/09 07:53:22;;;;;;;7.47;5.47;;;8.80;63.60;;;8.48;43.73;100664.56;4969210;28;20035;-39
2021/03/09 07:56:09;;;;;;;9.27;5.47;;;9.00;64.20;;;8.69;44.71;100659.34;4969022;28;20031;-39
2021/03/09 07:58:35;;;;;;;9.75;6.20;;;9.20;63.80;;;8.88;44.77;100666.44;4967793;28;20038;-39
2021/03/09 08:01:03;;;;;;;7.45;5.57;;;9.40;63.50;;;8.99;44.98;100658.56;4967714;28;20379;-40
2021/03/09 08:03:37;;;;;;;7.70;5.45;;;9.50;64.50;;;9.24;44.41;100654.69;4969040;28;20046;-39
2021/03/09 08:06:14;;;;;;;7.85;5.07;;;9.70;63.30;;;9.38;43.36;100651.75;4969059;28;20110;-39
2021/03/09 08:08:51;;;;;;;9.38;5.63;;;9.90;62.50;;;9.43;43.26;100649.56;4968873;28;20043;-41
2021/03/09 08:11:22;;;;;;;9.88;6.38;;;10.00;62.00;;;9.26;43.92;100647.59;4969222;28;20114;-41
2021/03/09 08:14:05;;;;;;;8.75;6.30;;;9.90;61.50;;;9.39;44.17;100643.00;4968974;28;20039;-39
2021/03/09 08:16:42;;;;;;;10.52;5.18;;;9.90;61.90;;;9.45;42.34;100636.44;4970534;28;20458;-41
2021/03/09 08:19:11;;;;;;;8.02;5.13;;;10.00;61.10;;;9.61;43.24;100640.16;4986102;28;20038;-43
2021/03/09 08:21:46;;;;;;;7.70;5.20;;;10.10;60.90;;;9.84;42.37;100638.16;4967591;28;20042;-40
2021/03/09 08:24:12;;;;;;;7.97;4.20;;;10.30;61.00;;;9.57;41.71;100627.53;4969501;28;20030;-39
2021/03/09 08:26:38;;;;;;;5.90;3.78;;;10.30;56.60;;;9.42;42.42;100624.53;4968675;28;20091;-39
2021/03/09 08:29:42;;;;;;;7.97;4.30;;;10.00;58.00;;;9.31;38.83;100622.03;4969848;28;20079;-39
2021/03/09 08:32:23;;;;;;;7.57;3.92;;;9.90;55.60;;;9.33;38.51;100625.31;4972488;28;20043;-40
2021/03/09 08:35:11;;;;;;;4.25;3.42;;;9.90;55.10;;;9.14;37.87;100614.84;4972447;28;20086;-39
2021/03/09 08:37:48;;;;;;;7.85;4.20;;;9.80;53.80;;;9.35;40.43;100609.59;4972393;28;20111;-39
2021/03/09 08:40:18;;;;;;;6.45;4.15;;;9.80;56.70;;;9.35;39.86;100617.38;4972570;28;20058;-39
2021/03/09 08:43:02;;;;;;;8.88;3.63;;;9.90;56.20;;;9.36;37.70;100609.44;4972143;28;20035;-40
2021/03/09 08:45:53;;;;;;;6.28;4.20;;;9.80;53.90;;;9.16;39.25;100616.38;4972054;28;20462;-43
2021/03/09 08:48:50;;;;;;;8.70;4.07;;;9.70;55.80;;;9.18;38.36;100611.03;4955668;28;20053;-39
2021/03/09 08:51:42;;;;;;;5.07;3.75;;;9.70;53.70;;;9.48;38.70;100605.75;4971980;28;20117;-40
2021/03/09 08:54:38;;;;;;;5.22;3.53;;;9.80;55.50;;;9.94;38.10;100602.50;4971797;28;20089;-39
2021/03/09 08:57:27;;;;;;;8.25;4.43;;;10.30;55.00;;;10.02;37.92;100601.00;4971946;28;20117;-39
2021/03/09 09:00:01;;;;;;;5.78;3.78;;;10.40;53.80;;;10.20;37.35;100589.81;4963950;28;20475;-40
2021/03/09 09:02:27;;;;;;;7.82;4.45;;;10.70;53.50;;;9.97;37.45;100601.41;4971877;28;20038;-39
2021/03/09 09:04:59;;;;;;;6.63;4.40;;;10.60;52.60;;;10.09;38.51;100584.72;4971483;28;20054;-40
2021/03/09 09:07:39;;;;;;;6.75;4.32;;;10.50;53.80;;;10.53;38.45;100595.50;4971625;28;20074;-40
2021/03/09 09:10:27;;;;;;;6.47;4.28;;;10.80;54.80;;;10.72;37.81;100595.44;4971441;28;20035;-40
2021/03/09 09:12:55;;;;;;;6.60;4.10;;;11.10;53.50;;;11.15;37.69;100588.81;4971344;28;20134;-39
2021/03/09 09:15:34;;;;;;;6.57;3.95;;;11.50;53.70;;;11.26;35.56;100586.00;4971115;28;20065;-39
2021/03/09 09:18:06;;;;;;;6.28;4.38;;;11.70;51.30;;;11.38;36.68;100584.81;4954438;28;20043;-40
2021/03/09 09:20:39;;;;;;;11.10;5.30;;;11.80;52.60;;;11.19;36.07;100582.34;4969821;28;20035;-40
2021/03/09 09:23:12;;;;;;;6.78;4.15;;;11.80;51.90;;;10.61;37.02;100577.38;4959563;28;20410;-40
2021/03/09 09:26:02;;;;;;;9.20;5.35;;;11.30;51.90;;;10.99;36.83;100579.00;4970970;28;20541;-39
2021/03/09 09:28:38;;;;;;;6.30;4.40;;;11.30;53.00;;;10.51;36.70;100569.56;4975561;28;20066;-39
2021/03/09 09:31:19;;;;;;;5.18;3.80;;;11.20;51.60;;;9.98;36.78;100577.84;4988496;28;20038;-40
2021/03/09 09:33:54;;;;;;;6.93;4.60;;;10.80;51.10;;;10.67;37.30;100571.59;4988216;28;20125;-40
2021/03/09 09:36:21;;;;;;;5.28;3.80;;;11.00;52.70;;;10.29;35.98;100568.13;4990782;28;20560;-39
2021/03/09 09:38:55;;;;;;;6.35;4.35;;;11.00;50.90;;;10.38;36.44;100568.25;4985530;28;20087;-39
2021/03/09 09:41:22;;;;;;;6.30;4.30;;;10.90;51.60;;;10.03;36.94;100568.81;4987550;28;20057;-39
2021/03/09 09:43:49;;;;;;;5.32;3.13;;;10.80;51.50;;;9.93;37.19;100555.81;4984324;28;20046;-39
2021/03/09 09:46:22;;;;;;;9.55;4.88;;;10.60;51.50;;;10.35;36.77;100573.75;4984350;28;20066;-39
2021/03/09 09:48:49;;;;;;;5.45;3.95;;;10.80;52.20;;;10.40;36.98;100569.75;4973668;28;20035;-38
2021/03/09 09:51:20;;;;;;;6.57;4.18;;;10.80;51.80;;;10.75;36.00;100563.88;4988598;28;20354;-39
2021/03/09 09:53:49;;;;;;;8.07;4.07;;;11.10;51.40;;;10.80;36.52;100561.69;4986371;28;20042;-38
2021/03/09 09:56:18;;;;;;;8.40;4.15;;;11.20;51.00;;;11.24;35.84;100561.88;4986143;28;20034;-39
2021/03/09 09:58:53;;;;;;;5.20;3.95;;;11.50;51.00;;;11.10;34.88;100557.13;4990472;28;20088;-39
2021/03/09 10:01:39;;;;;;;6.95;3.85;;;11.70;50.00;;;11.04;36.22;100558.53;4986326;28;20042;-38
2021/03/09 10:04:07;;;;;;;7.68;4.20;;;11.60;50.30;;;11.32;35.06;100561.13;4984492;28;20108;-38
2021/03/09 10:06:50;;;;;;;6.72;3.58;;;11.70;49.50;;;11.37;33.92;100562.31;4970753;28;20382;-39
2021/03/09 10:09:24;;;;;;;6.72;3.65;;;11.80;49.00;;;11.39;33.98;100559.56;4970629;28;20046;-39
2021/03/09 10:11:56;;;;;;;9.20;4.13;;;11.80;48.40;;;11.74;34.79;100554.38;4981889;28;20106;-39
2021/03/09 10:14:28;;;;;;;5.93;3.65;;;12.10;49.70;;;12.19;34.17;100549.03;4989951;28;20113;-39
2021/03/09 10:16:55;;;;;;;5.43;3.83;;;12.40;49.60;;;11.88;34.87;100547.81;4969739;28;20509;-39
2021/03/09 10:19:22;;;;;;;5.80;4.55;;;12.40;48.20;;;12.15;34.67;100549.50;4989589;28;20038;-39
2021/03/09 10:21:54;;;;;;;5.20;3.63;;;12.50;49.20;;;12.37;33.81;100546.34;4987174;28;20030;-39
2021/03/09 10:24:31;;;;;;;8.57;3.45;;;12.70;48.30;;;11.98;33.50;100545.13;4989529;28;20046;-38
2021/03/09 10:27:01;;;;;;;7.20;4.25;;;12.60;48.00;;;12.05;33.72;100546.97;4978051;28;20038;-38
2021/03/09 10:29:32;;;;;;;6.55;4.30;;;12.60;47.70;;;11.67;33.54;100548.09;4986460;28;20077;-38
2021/03/09 10:32:00;;;;;;;8.43;4.68;;;12.30;47.50;;;11.62;34.61;100539.91;4984858;28;20061;-38
2021/03/09 10:34:44;;;;;;;6.55;3.70;;;12.10;48.20;;;11.73;33.63;100538.84;4984562;28;20124;-39
2021/03/09 10:37:16;;;;;;;8.18;4.25;;;12.20;47.90;;;11.64;34.17;100536.16;4969217;28;20399;-39